createdAt,value
2019-05-03T00:02:29.323Z,9.40
2019-05-03T00:05:54.197Z,9.40
2019-05-03T00:08:58.725Z,9.30
2019-05-03T00:12:03.245Z,9.30
2019-05-03T00:15:24.081Z,8.90
2019-05-03T00:18:48.216Z,9.10
2019-05-03T00:21:52.757Z,8.70
2019-05-03T00:25:05.958Z,8.90
2019-05-03T00:28:04.201Z,8.90
2019-05-03T00:31:08.988Z,8.90
2019-05-03T00:34:17.033Z,9.00
2019-05-03T00:37:23.366Z,8.80
2019-05-03T00:40:32.426Z,8.70
2019-05-03T00:43:37.085Z,8.90
2019-05-03T00:46:42.164Z,9.10
2019-05-03T00:49:46.957Z,9.20
2019-05-03T00:52:57.245Z,9.20
2019-05-03T00:56:01.851Z,9.10
2019-05-03T00:59:07.267Z,9.20
2019-05-03T01:02:11.948Z,9.30
2019-05-03T01:05:16.684Z,9.30
2019-05-03T01:08:22.041Z,9.40
2019-05-03T01:11:27.251Z,9.30
2019-05-03T01:14:32.191Z,8.90
2019-05-03T01:17:36.862Z,9.00
2019-05-03T01:20:42.666Z,9.10
2019-05-03T01:23:47.403Z,9.00
2019-05-03T01:26:52.577Z,9.10
2019-05-03T01:29:57.888Z,9.00
2019-05-03T01:33:02.957Z,8.90
2019-05-03T01:36:07.683Z,8.80
2019-05-03T01:39:12.759Z,8.60
2019-05-03T01:42:18.152Z,8.50
2019-05-03T01:45:22.846Z,8.60
2019-05-03T01:48:52.432Z,8.60
2019-05-03T01:52:07.107Z,8.80
2019-05-03T01:55:15.734Z,8.60
2019-05-03T01:58:18.307Z,8.40
2019-05-03T02:01:42.816Z,8.50
2019-05-03T02:04:53.245Z,8.30
2019-05-03T02:07:59.082Z,8.30
2019-05-03T02:11:03.612Z,8.40
2019-05-03T02:14:09.072Z,8.70
2019-05-03T02:17:13.654Z,8.80
2019-05-03T02:20:18.347Z,8.90
2019-05-03T02:23:22.830Z,8.90
2019-05-03T02:26:27.442Z,8.90
2019-05-03T02:29:32.603Z,8.90
2019-05-03T02:32:37.498Z,8.60
2019-05-03T02:35:43.030Z,8.40
2019-05-03T02:38:48.899Z,8.50
2019-05-03T02:41:59.765Z,8.70
2019-05-03T02:45:00.093Z,8.90
2019-05-03T02:48:11.272Z,8.90
2019-05-03T02:51:15.921Z,8.60
2019-05-03T02:54:20.661Z,8.70
2019-05-03T02:57:25.831Z,8.50
2019-05-03T03:00:57.779Z,8.20
2019-05-03T03:04:05.129Z,8.20
2019-05-03T03:07:09.416Z,8.10
2019-05-03T03:10:16.152Z,8.00
2019-05-03T03:13:22.528Z,8.00
2019-05-03T03:16:28.674Z,8.10
2019-05-03T03:19:35.383Z,8.00
2019-05-03T03:22:45.604Z,8.10
2019-05-03T03:25:56.055Z,8.00
2019-05-03T03:29:06.321Z,8.00
2019-05-03T03:32:28.256Z,8.00
2019-05-03T03:35:37.626Z,8.00
2019-05-03T03:38:39.615Z,8.00
2019-05-03T03:41:45.875Z,7.90
2019-05-03T03:44:51.684Z,8.00
2019-05-03T03:47:57.403Z,8.00
2019-05-03T03:51:05.169Z,8.10
2019-05-03T03:54:15.467Z,8.10
2019-05-03T03:57:21.137Z,8.10
2019-05-03T04:00:26.025Z,8.20
2019-05-03T04:03:30.715Z,8.30
2019-05-03T04:06:41.530Z,8.50
2019-05-03T04:09:46.088Z,8.50
2019-05-03T04:12:50.771Z,8.60
2019-05-03T04:16:20.951Z,8.70
2019-05-03T04:19:28.009Z,8.80
2019-05-03T04:22:32.795Z,8.70
2019-05-03T04:25:38.606Z,8.60
2019-05-03T04:28:45.322Z,8.60
2019-05-03T04:31:50.270Z,8.60
2019-05-03T04:34:56.121Z,8.50
2019-05-03T04:38:05.875Z,8.40
2019-05-03T04:41:10.523Z,8.30
2019-05-03T04:44:15.658Z,8.50
2019-05-03T04:47:20.343Z,8.60
2019-05-03T04:50:25.641Z,8.50
2019-05-03T04:53:35.744Z,8.40
2019-05-03T04:57:06.933Z,8.40
2019-05-03T05:00:25.613Z,8.30
2019-05-03T05:03:26.612Z,8.30
2019-05-03T05:06:35.071Z,8.40
2019-05-03T05:09:56.559Z,8.40
2019-05-03T05:13:01.123Z,8.40
2019-05-03T05:16:06.026Z,8.50
2019-05-03T05:19:15.193Z,8.50
2019-05-03T05:22:24.584Z,8.50
2019-05-03T05:25:31.559Z,8.60
2019-05-03T05:28:44.605Z,8.70
2019-05-03T05:31:48.522Z,8.70
2019-05-03T05:34:54.842Z,8.80
2019-05-03T05:38:01.945Z,8.80
2019-05-03T05:41:06.431Z,8.80
2019-05-03T05:44:10.911Z,8.90
2019-05-03T05:47:49.496Z,9.00
2019-05-03T05:50:56.033Z,9.00
2019-05-03T05:54:00.539Z,9.20
2019-05-03T05:57:40.208Z,9.20
2019-05-03T06:00:55.176Z,9.30
2019-05-03T06:03:59.779Z,9.40
2019-05-03T06:07:15.875Z,9.40
2019-05-03T06:10:32.078Z,9.30
2019-05-03T06:13:40.738Z,9.40
2019-05-03T06:16:56.474Z,9.40
2019-05-03T06:20:20.917Z,9.40
2019-05-03T06:23:29.590Z,9.50
2019-05-03T06:26:56.566Z,9.40
2019-05-03T06:30:07.559Z,9.40
2019-05-03T06:33:14.293Z,9.40
2019-05-03T06:36:18.435Z,9.40
2019-05-03T06:39:24.953Z,9.40
2019-05-03T06:42:29.420Z,9.40
2019-05-03T06:45:35.326Z,9.40
2019-05-03T06:48:40.203Z,9.40
2019-05-03T06:51:49.506Z,9.50
2019-05-03T06:54:51.137Z,9.50
2019-05-03T06:57:55.763Z,9.50
2019-05-03T07:01:15.152Z,9.60
2019-05-03T07:04:24.622Z,9.60
2019-05-03T07:07:57.174Z,9.70
2019-05-03T07:11:02.332Z,9.80
2019-05-03T07:14:07.197Z,9.80
2019-05-03T07:17:12.011Z,9.80
2019-05-03T07:20:16.492Z,9.90
2019-05-03T07:23:21.514Z,9.90
2019-05-03T07:26:25.977Z,9.80
2019-05-03T07:29:30.554Z,9.90
2019-05-03T07:32:35.531Z,9.80
2019-05-03T07:35:41.518Z,9.90
2019-05-03T07:38:46.108Z,9.90
2019-05-03T07:41:51.143Z,10.00
2019-05-03T07:44:55.981Z,10.00
2019-05-03T07:48:02.273Z,10.10
2019-05-03T07:51:07.682Z,10.10
2019-05-03T07:54:12.242Z,10.10
2019-05-03T07:57:35.501Z,10.20
2019-05-03T08:00:39.006Z,10.20
2019-05-03T08:03:45.095Z,10.20
2019-05-03T08:06:49.632Z,10.30
2019-05-03T08:09:55.576Z,10.40
2019-05-03T08:13:00.299Z,10.60
2019-05-03T08:16:05.941Z,10.50
2019-05-03T08:19:29.866Z,10.50
2019-05-03T08:22:34.566Z,10.50
2019-05-03T08:25:39.303Z,10.60
2019-05-03T08:28:44.442Z,10.70
2019-05-03T08:31:59.398Z,10.50
2019-05-03T08:35:20.174Z,10.50
2019-05-03T08:38:25.784Z,10.60
2019-05-03T08:41:32.254Z,10.70
2019-05-03T08:44:36.754Z,10.70
2019-05-03T08:47:41.198Z,11.00
2019-05-03T08:50:46.307Z,11.20
2019-05-03T08:53:51.185Z,11.20
2019-05-03T08:56:55.957Z,11.30
2019-05-03T09:00:00.439Z,11.10
2019-05-03T09:03:05.373Z,11.10
2019-05-03T09:06:10.156Z,11.10
2019-05-03T09:09:30.044Z,11.10
2019-05-03T09:12:52.148Z,11.00
2019-05-03T09:15:56.772Z,11.10
2019-05-03T09:19:01.606Z,11.30
2019-05-03T09:22:06.668Z,11.20
2019-05-03T09:25:11.155Z,11.20
2019-05-03T09:28:17.076Z,11.40
2019-05-03T09:31:21.602Z,11.50
2019-05-03T09:34:26.451Z,11.50
2019-05-03T09:37:30.913Z,11.60
2019-05-03T09:40:35.987Z,11.50
2019-05-03T09:43:40.515Z,11.60
2019-05-03T09:46:45.192Z,11.80
2019-05-03T09:49:49.682Z,11.80
2019-05-03T09:52:55.537Z,11.70
2019-05-03T09:56:04.913Z,11.80
2019-05-03T09:59:09.091Z,11.90
2019-05-03T10:02:15.150Z,11.90
2019-05-03T10:05:20.017Z,11.80
2019-05-03T10:08:25.469Z,11.80
2019-05-03T10:11:30.244Z,11.90
2019-05-03T10:14:34.845Z,11.90
2019-05-03T10:17:48.755Z,11.90
2019-05-03T10:20:56.219Z,12.10
2019-05-03T10:24:00.663Z,12.20
2019-05-03T10:27:05.698Z,12.20
2019-05-03T10:30:13.411Z,12.10
2019-05-03T10:33:22.734Z,12.00
2019-05-03T10:36:27.452Z,12.00
2019-05-03T10:40:15.812Z,12.00
2019-05-03T10:43:18.079Z,12.10
2019-05-03T10:46:22.664Z,12.20
2019-05-03T10:49:47.117Z,12.30
2019-05-03T10:53:18.657Z,12.30
2019-05-03T10:56:42.116Z,12.40
2019-05-03T10:59:49.738Z,12.50
2019-05-03T11:02:59.643Z,12.50
2019-05-03T11:06:25.899Z,12.60
2019-05-03T11:10:02.863Z,12.60
2019-05-03T11:13:51.085Z,12.70
2019-05-03T11:16:56.601Z,12.70
2019-05-03T11:20:01.123Z,12.70
2019-05-03T11:23:07.296Z,12.60
2019-05-03T11:26:13.827Z,12.80
2019-05-03T11:29:18.033Z,12.90
2019-05-03T11:32:55.605Z,12.80
2019-05-03T11:36:31.823Z,12.90
2019-05-03T11:39:37.311Z,13.00
2019-05-03T11:42:41.835Z,13.00
2019-05-03T11:45:46.403Z,13.00
2019-05-03T11:48:51.540Z,12.80
2019-05-03T11:51:57.130Z,12.80
2019-05-03T11:55:01.711Z,12.70
2019-05-03T11:58:18.795Z,12.80
2019-05-03T12:01:30.528Z,12.90
2019-05-03T12:04:35.456Z,13.00
2019-05-03T12:07:40.888Z,13.10
2019-05-03T12:10:55.360Z,13.20
2019-05-03T12:14:10.603Z,13.20
2019-05-03T12:17:23.896Z,13.20
2019-05-03T12:20:23.941Z,13.00
2019-05-03T12:23:31.617Z,13.10
2019-05-03T12:26:43.978Z,13.00
2019-05-03T12:29:44.585Z,13.00
2019-05-03T12:32:50.163Z,13.00
2019-05-03T12:35:55.578Z,13.00
2019-05-03T12:39:00.187Z,13.10
2019-05-03T12:42:05.933Z,12.80
2019-05-03T12:45:11.932Z,12.80
2019-05-03T12:48:16.529Z,12.80
2019-05-03T12:51:21.162Z,12.70
2019-05-03T12:54:26.157Z,12.70
2019-05-03T12:57:32.022Z,12.70
2019-05-03T13:00:48.670Z,12.60
2019-05-03T13:04:01.778Z,12.60
2019-05-03T13:07:19.303Z,12.40
2019-05-03T13:10:26.481Z,12.40
2019-05-03T13:13:35.540Z,12.40
2019-05-03T13:16:44.489Z,12.30
2019-05-03T13:19:48.835Z,12.40
2019-05-03T13:22:55.811Z,12.40
2019-05-03T13:26:00.153Z,12.50
2019-05-03T13:29:05.857Z,12.50
2019-05-03T13:32:10.545Z,12.60
2019-05-03T13:35:15.488Z,12.60
2019-05-03T13:38:20.393Z,12.80
2019-05-03T13:41:26.019Z,12.80
2019-05-03T13:44:30.619Z,12.80
2019-05-03T13:47:36.515Z,12.80
2019-05-03T13:50:41.945Z,12.90
2019-05-03T13:53:46.620Z,12.90
2019-05-03T13:56:55.250Z,13.10
2019-05-03T13:59:59.964Z,13.30
2019-05-03T14:03:04.700Z,13.30
2019-05-03T14:06:09.649Z,13.20
2019-05-03T14:09:14.299Z,12.90
2019-05-03T14:12:18.839Z,12.80
2019-05-03T14:15:25.548Z,12.80
2019-05-03T14:18:30.451Z,13.00
2019-05-03T14:21:43.815Z,13.00
2019-05-03T14:24:48.435Z,13.10
2019-05-03T14:27:54.822Z,13.10
2019-05-03T14:30:59.167Z,13.00
2019-05-03T14:34:05.798Z,13.00
2019-05-03T14:37:10.297Z,13.10
2019-05-03T14:40:17.947Z,13.30
2019-05-03T14:43:24.703Z,13.20
2019-05-03T14:46:33.080Z,13.10
2019-05-03T14:49:35.976Z,13.10
2019-05-03T14:52:40.528Z,12.90
2019-05-03T14:55:58.920Z,12.70
2019-05-03T14:59:37.422Z,12.70
2019-05-03T15:02:52.392Z,12.60
2019-05-03T15:05:58.446Z,12.50
2019-05-03T15:09:05.326Z,12.40
2019-05-03T15:12:09.457Z,12.30
2019-05-03T15:15:14.761Z,12.30
2019-05-03T15:18:19.962Z,12.30
2019-05-03T15:24:34.666Z,12.30
2019-05-03T15:27:39.738Z,12.10
2019-05-03T15:30:46.569Z,12.10
2019-05-03T15:33:51.109Z,12.00
2019-05-03T15:36:57.368Z,11.90
2019-05-03T15:40:06.066Z,11.90
2019-05-03T15:43:28.893Z,11.80
2019-05-03T15:46:48.896Z,11.80
2019-05-03T15:49:55.423Z,11.80
2019-05-03T15:53:04.398Z,11.90
2019-05-03T15:56:11.860Z,11.90
2019-05-03T15:59:17.104Z,11.80
2019-05-03T16:02:22.332Z,11.90
2019-05-03T16:05:26.742Z,11.90
2019-05-03T16:08:33.078Z,12.00
2019-05-03T16:11:37.605Z,12.10
2019-05-03T16:14:42.135Z,12.20
2019-05-03T16:17:46.692Z,12.20
2019-05-03T16:20:51.415Z,12.20
2019-05-03T16:23:55.891Z,12.20
2019-05-03T16:27:34.502Z,12.10
2019-05-03T16:30:48.052Z,12.10
2019-05-03T16:33:52.539Z,12.10
2019-05-03T16:36:57.003Z,12.10
2019-05-03T16:40:02.056Z,12.00
2019-05-03T16:43:06.547Z,11.90
2019-05-03T16:46:11.482Z,12.00
2019-05-03T16:49:16.475Z,12.10
2019-05-03T16:52:40.682Z,12.10
2019-05-03T16:55:45.899Z,12.10
2019-05-03T16:58:50.422Z,12.00
2019-05-03T17:01:55.228Z,12.00
2019-05-03T17:05:10.265Z,12.00
2019-05-03T17:08:30.668Z,12.10
2019-05-03T17:11:35.934Z,12.20
2019-05-03T17:14:40.904Z,12.10
2019-05-03T17:17:45.659Z,12.00
2019-05-03T17:20:51.598Z,11.90
2019-05-03T17:23:56.367Z,11.80
2019-05-03T17:27:00.843Z,12.00
2019-05-03T17:30:08.605Z,12.10
2019-05-03T17:33:16.156Z,12.10
2019-05-03T17:36:25.044Z,12.10
2019-05-03T17:39:54.715Z,12.00
2019-05-03T17:43:11.917Z,11.90
2019-05-03T17:46:16.940Z,11.90
2019-05-03T17:49:23.140Z,11.90
2019-05-03T17:52:46.751Z,11.90
2019-05-03T17:56:10.214Z,11.90
2019-05-03T17:59:28.876Z,11.90
2019-05-03T18:02:46.120Z,11.90
2019-05-03T18:06:00.081Z,11.90
2019-05-03T18:09:23.530Z,11.90
2019-05-03T18:12:27.992Z,11.90
2019-05-03T18:15:34.603Z,11.90
2019-05-03T18:18:40.595Z,11.80
2019-05-03T18:21:45.106Z,11.80
2019-05-03T18:24:49.680Z,11.80
2019-05-03T18:27:55.200Z,11.70
2019-05-03T18:31:00.034Z,11.70
2019-05-03T18:34:05.169Z,11.60
2019-05-03T18:37:11.282Z,11.50
2019-05-03T18:40:15.999Z,11.50
2019-05-03T18:43:39.081Z,11.40
2019-05-03T18:46:55.902Z,11.40
2019-05-03T18:50:01.357Z,11.50
2019-05-03T18:53:05.837Z,11.70
2019-05-03T18:56:10.826Z,11.70
2019-05-03T18:59:18.391Z,11.70
2019-05-03T19:02:24.253Z,11.70
2019-05-03T19:05:30.307Z,11.70
2019-05-03T19:08:54.318Z,11.70
2019-05-03T19:12:20.927Z,11.60
2019-05-03T19:15:27.055Z,11.60
2019-05-03T19:18:38.974Z,11.50
2019-05-03T19:21:44.464Z,11.40
2019-05-03T19:24:49.161Z,11.40
2019-05-03T19:27:54.615Z,11.40
2019-05-03T19:31:05.365Z,11.40
2019-05-03T19:34:11.581Z,11.40
2019-05-03T19:37:16.134Z,11.40
2019-05-03T19:40:22.062Z,11.50
2019-05-03T19:43:35.533Z,11.50
2019-05-03T19:46:49.223Z,11.30
2019-05-03T19:49:54.500Z,11.20
2019-05-03T19:53:21.149Z,11.20
2019-05-03T19:56:29.078Z,11.20
2019-05-03T19:59:51.753Z,11.20
2019-05-03T20:03:00.415Z,11.10
2019-05-03T20:06:30.265Z,11.20
2019-05-03T20:09:49.349Z,11.20
2019-05-03T20:12:55.152Z,11.10
2019-05-03T20:16:01.162Z,11.10
2019-05-03T20:19:17.899Z,11.20
2019-05-03T20:22:15.027Z,11.20
2019-05-03T20:25:19.089Z,11.30
2019-05-03T20:28:44.925Z,11.30
2019-05-03T20:31:49.648Z,11.30
2019-05-03T20:34:55.127Z,11.30
2019-05-03T20:37:59.890Z,11.40
2019-05-03T20:41:05.225Z,11.40
2019-05-03T20:44:25.911Z,11.40
2019-05-03T20:47:38.190Z,11.40
2019-05-03T20:50:44.597Z,11.40
2019-05-03T20:53:49.017Z,11.40
2019-05-03T20:56:54.668Z,11.40
2019-05-03T20:59:59.246Z,11.50
2019-05-03T21:03:04.923Z,11.50
2019-05-03T21:06:09.558Z,11.40
2019-05-03T21:09:15.030Z,11.50
2019-05-03T21:12:19.687Z,11.50
2019-05-03T21:15:39.852Z,11.60
2019-05-03T21:18:50.355Z,11.50
2019-05-03T21:22:02.300Z,11.50
2019-05-03T21:25:15.698Z,11.50
2019-05-03T21:28:20.366Z,11.20
2019-05-03T21:31:24.891Z,11.20
2019-05-03T21:34:29.418Z,11.40
2019-05-03T21:37:34.885Z,11.30
2019-05-03T21:40:58.565Z,11.40
2019-05-03T21:44:04.839Z,11.40
2019-05-03T21:47:35.109Z,11.50
2019-05-03T21:50:39.802Z,11.50
2019-05-03T21:53:45.045Z,11.40
2019-05-03T21:56:49.805Z,11.50
2019-05-03T21:59:55.021Z,11.20
2019-05-03T22:02:59.675Z,11.40
2019-05-03T22:06:04.398Z,11.30
2019-05-03T22:09:10.123Z,10.90
2019-05-03T22:12:15.437Z,10.70
2019-05-03T22:15:31.121Z,10.90
2019-05-03T22:18:36.025Z,11.00
2019-05-03T22:21:55.157Z,11.00
2019-05-03T22:25:00.151Z,10.90
2019-05-03T22:28:07.178Z,10.80
2019-05-03T22:31:11.900Z,10.40
2019-05-03T22:34:16.567Z,10.40
2019-05-03T22:37:21.053Z,10.40
2019-05-03T22:40:46.760Z,10.00
2019-05-03T22:43:50.992Z,9.90
2019-05-03T22:46:55.999Z,9.70
2019-05-03T22:50:00.530Z,9.60
2019-05-03T22:53:05.958Z,9.40
2019-05-03T22:56:10.789Z,9.20
2019-05-03T22:59:16.151Z,9.20
2019-05-03T23:02:20.694Z,9.20
2019-05-03T23:05:25.749Z,9.40
2019-05-03T23:08:30.332Z,9.10
2019-05-03T23:11:35.834Z,8.80
2019-05-03T23:14:40.439Z,8.90
2019-05-03T23:17:45.249Z,8.60
2019-05-03T23:20:57.228Z,8.60
2019-05-03T23:24:01.811Z,8.50
2019-05-03T23:27:06.438Z,8.40
2019-05-03T23:30:11.134Z,8.10
2019-05-03T23:33:15.737Z,8.00
2019-05-03T23:36:32.524Z,7.90
2019-05-03T23:39:26.657Z,7.70
2019-05-03T23:42:31.631Z,7.90
2019-05-03T23:45:36.102Z,7.80
2019-05-03T23:48:40.697Z,7.70
2019-05-03T23:51:50.271Z,7.80
2019-05-03T23:54:55.394Z,7.60
2019-05-03T23:57:59.899Z,7.60
